createdAt,value
2022-10-16T00:01:31.065Z,98620.16
2022-10-16T00:03:59.038Z,98611.13
2022-10-16T00:06:26.442Z,98614.13
2022-10-16T00:08:53.575Z,98623.97
2022-10-16T00:11:21.518Z,98626.69
2022-10-16T00:13:49.244Z,98626.69
2022-10-16T00:16:17.764Z,98627.53
2022-10-16T00:18:44.817Z,98627.53
2022-10-16T00:21:22.284Z,98631.09
2022-10-16T00:23:52.292Z,98631.09
2022-10-16T00:26:19.554Z,98633.81
2022-10-16T00:28:48.064Z,98637.63
2022-10-16T00:31:15.391Z,98633.00
2022-10-16T00:33:42.475Z,98633.00
2022-10-16T00:36:11.631Z,98637.63
2022-10-16T00:38:39.163Z,98629.69
2022-10-16T00:41:07.138Z,98635.16
2022-10-16T00:43:40.046Z,98637.88
2022-10-16T00:46:16.963Z,98624.22
2022-10-16T00:48:47.098Z,98630.53
2022-10-16T00:51:14.126Z,98628.03
2022-10-16T00:53:41.160Z,98629.91
2022-10-16T00:56:08.526Z,98637.03
2022-10-16T00:58:35.550Z,98634.53
2022-10-16T01:01:02.563Z,98635.38
2022-10-16T01:03:34.779Z,98633.47
2022-10-16T01:07:12.718Z,98639.78
2022-10-16T01:10:30.400Z,98631.59
2022-10-16T01:13:22.108Z,98628.84
2022-10-16T01:16:42.440Z,98639.78
2022-10-16T01:19:52.800Z,98643.56
2022-10-16T01:22:53.175Z,98652.59
2022-10-16T01:25:54.562Z,98643.56
2022-10-16T01:28:23.594Z,98642.75
2022-10-16T01:30:50.796Z,98644.63
2022-10-16T01:33:31.007Z,98641.91
2022-10-16T01:36:01.420Z,98647.38
2022-10-16T01:38:34.337Z,98640.25
2022-10-16T01:41:03.462Z,98640.25
2022-10-16T01:43:32.859Z,98641.06
2022-10-16T01:46:00.628Z,98640.25
2022-10-16T01:48:27.653Z,98636.09
2022-10-16T01:51:08.708Z,98645.69
2022-10-16T01:53:35.712Z,98643.81
2022-10-16T01:56:03.073Z,98647.38
2022-10-16T01:58:32.037Z,98647.38
2022-10-16T02:00:59.129Z,98649.03
2022-10-16T02:03:26.206Z,98649.03
2022-10-16T02:05:57.595Z,98652.81
2022-10-16T02:08:25.349Z,98644.63
2022-10-16T02:10:52.349Z,98651.16
2022-10-16T02:13:25.833Z,98652.00
2022-10-16T02:15:52.878Z,98660.19
2022-10-16T02:18:19.848Z,98658.56
2022-10-16T02:20:58.982Z,98658.78
2022-10-16T02:23:55.687Z,98658.56
2022-10-16T02:26:54.548Z,98668.63
2022-10-16T02:29:24.622Z,98665.06
2022-10-16T02:31:53.033Z,98665.91
2022-10-16T02:34:20.070Z,98666.75
2022-10-16T02:36:47.057Z,98676.84
2022-10-16T02:39:14.109Z,98665.91
2022-10-16T02:41:41.152Z,98674.09
2022-10-16T02:44:08.146Z,98672.22
2022-10-16T02:46:35.197Z,98666.75
2022-10-16T02:49:02.227Z,98665.91
2022-10-16T02:51:29.319Z,98657.47
2022-10-16T02:53:56.438Z,98667.53
2022-10-16T02:56:23.539Z,98661.28
2022-10-16T02:58:50.573Z,98659.63
2022-10-16T03:01:18.173Z,98658.78
2022-10-16T03:03:45.173Z,98663.41
2022-10-16T03:06:12.164Z,98659.84
2022-10-16T03:08:39.172Z,98662.56
2022-10-16T03:11:06.188Z,98671.59
2022-10-16T03:13:33.257Z,98673.50
2022-10-16T03:16:00.261Z,98675.41
2022-10-16T03:18:27.313Z,98678.38
2022-10-16T03:20:54.336Z,98684.06
2022-10-16T03:23:21.316Z,98685.75
2022-10-16T03:25:48.505Z,98686.56
2022-10-16T03:28:15.568Z,98693.69
2022-10-16T03:30:42.593Z,98692.03
2022-10-16T03:33:09.583Z,98699.13
2022-10-16T03:35:36.869Z,98698.06
2022-10-16T03:38:03.880Z,98699.13
2022-10-16T03:40:33.131Z,98693.69
2022-10-16T03:43:00.502Z,98693.69
2022-10-16T03:45:28.426Z,98689.31
2022-10-16T03:47:55.514Z,98699.41
2022-10-16T03:50:22.511Z,98712.22
2022-10-16T03:52:49.536Z,98705.91
2022-10-16T03:55:16.497Z,98707.81
2022-10-16T03:57:43.486Z,98702.84
2022-10-16T04:00:11.330Z,98708.88
2022-10-16T04:02:38.406Z,98702.00
2022-10-16T04:05:05.638Z,98709.94
2022-10-16T04:07:32.661Z,98705.56
2022-10-16T04:10:00.366Z,98704.97
2022-10-16T04:12:27.900Z,98707.69
2022-10-16T04:14:54.954Z,98705.81
2022-10-16T04:17:21.991Z,98710.44
2022-10-16T04:19:49.026Z,98708.19
2022-10-16T04:22:16.105Z,98704.97
2022-10-16T04:24:43.161Z,98713.16
2022-10-16T04:27:10.167Z,98711.50
2022-10-16T04:29:37.151Z,98715.88
2022-10-16T04:32:04.164Z,98719.69
2022-10-16T04:34:31.196Z,98713.16
2022-10-16T04:36:58.136Z,98712.31
2022-10-16T04:39:25.144Z,98711.50
2022-10-16T04:41:52.092Z,98707.94
2022-10-16T04:44:19.064Z,98709.84
2022-10-16T04:46:46.126Z,98710.91
2022-10-16T04:49:13.122Z,98707.34
2022-10-16T04:51:40.271Z,98702.13
2022-10-16T04:54:07.278Z,98702.13
2022-10-16T04:56:34.365Z,98708.63
2022-10-16T04:59:01.352Z,98709.72
2022-10-16T05:01:28.399Z,98717.66
2022-10-16T05:03:55.359Z,98717.09
2022-10-16T05:06:22.353Z,98717.91
2022-10-16T05:08:49.341Z,98718.50
2022-10-16T05:11:16.313Z,98725.03
2022-10-16T05:13:43.347Z,98729.69
2022-10-16T05:16:10.403Z,98727.75
2022-10-16T05:18:37.401Z,98724.22
2022-10-16T05:21:04.573Z,98724.22
2022-10-16T05:23:31.509Z,98733.47
2022-10-16T05:25:59.514Z,98729.91
2022-10-16T05:28:27.729Z,98746.28
2022-10-16T05:30:54.938Z,98748.19
2022-10-16T05:33:25.985Z,98742.72
2022-10-16T05:35:53.171Z,98744.63
2022-10-16T05:38:20.229Z,98738.09
2022-10-16T05:40:57.452Z,98750.91
2022-10-16T05:43:24.414Z,98752.81
2022-10-16T05:46:05.752Z,98756.00
2022-10-16T05:48:32.867Z,98762.53
2022-10-16T05:51:01.056Z,98767.50
2022-10-16T05:53:34.596Z,98778.44
2022-10-16T05:56:01.854Z,98782.25
2022-10-16T05:58:34.079Z,98786.63
2022-10-16T06:01:05.616Z,98787.25
2022-10-16T06:03:32.627Z,98788.28
2022-10-16T06:05:59.657Z,98789.97
2022-10-16T06:08:26.716Z,98791.03
2022-10-16T06:11:04.271Z,98797.31
2022-10-16T06:13:31.297Z,98803.63
2022-10-16T06:16:01.407Z,98796.25
2022-10-16T06:18:28.827Z,98807.19
2022-10-16T06:20:56.191Z,98804.47
2022-10-16T06:23:23.467Z,98807.75
2022-10-16T06:25:50.539Z,98811.34
2022-10-16T06:28:17.596Z,98815.72
2022-10-16T06:30:47.233Z,98809.44
2022-10-16T06:33:14.492Z,98829.38
2022-10-16T06:35:41.535Z,98829.38
2022-10-16T06:38:08.477Z,98832.13
2022-10-16T06:40:35.495Z,98833.19
2022-10-16T06:43:02.525Z,98832.34
2022-10-16T06:45:29.609Z,98823.31
2022-10-16T06:47:56.830Z,98836.75
2022-10-16T06:50:23.830Z,98838.41
2022-10-16T06:52:50.824Z,98845.78
2022-10-16T06:55:18.358Z,98843.03
2022-10-16T06:57:45.392Z,98851.84
2022-10-16T07:00:13.227Z,98843.41
2022-10-16T07:02:40.262Z,98845.06
2022-10-16T07:05:07.605Z,98843.16
2022-10-16T07:07:34.954Z,98841.28
2022-10-16T07:10:02.082Z,98849.22
2022-10-16T07:12:29.328Z,98842.94
2022-10-16T07:14:57.461Z,98848.41
2022-10-16T07:17:24.502Z,98848.16
2022-10-16T07:19:54.017Z,98850.66
2022-10-16T07:22:21.118Z,98847.09
2022-10-16T07:24:52.361Z,98850.88
2022-10-16T07:27:19.700Z,98847.09
2022-10-16T07:29:46.900Z,98847.09
2022-10-16T07:32:14.051Z,98849.81
2022-10-16T07:34:41.192Z,98863.47
2022-10-16T07:37:08.145Z,98855.28
2022-10-16T07:39:35.179Z,98858.00
2022-10-16T07:42:02.162Z,98848.97
2022-10-16T07:44:29.197Z,98867.88
2022-10-16T07:46:56.286Z,98868.94
2022-10-16T07:49:23.323Z,98872.28
2022-10-16T07:51:50.276Z,98875.59
2022-10-16T07:54:17.305Z,98876.44
2022-10-16T07:56:44.321Z,98869.91
2022-10-16T07:59:11.632Z,98870.75
2022-10-16T08:01:39.229Z,98869.66
2022-10-16T08:04:06.722Z,98868.59
2022-10-16T08:06:36.741Z,98883.91
2022-10-16T08:09:04.421Z,98885.59
2022-10-16T08:11:32.653Z,98885.59
2022-10-16T08:13:59.827Z,98879.28
2022-10-16T08:16:27.734Z,98880.13
2022-10-16T08:18:54.889Z,98883.69
2022-10-16T08:21:24.285Z,98888.06
2022-10-16T08:23:56.722Z,98886.44
2022-10-16T08:26:27.696Z,98881.81
2022-10-16T08:28:55.488Z,98894.38
2022-10-16T08:31:24.453Z,98884.28
2022-10-16T08:33:53.534Z,98885.94
2022-10-16T08:36:21.020Z,98888.69
2022-10-16T08:38:51.744Z,98893.31
2022-10-16T08:41:49.624Z,98894.97
2022-10-16T08:44:31.312Z,98893.09
2022-10-16T08:46:58.354Z,98909.22
2022-10-16T08:49:28.306Z,98887.63
2022-10-16T08:51:56.008Z,98901.03
2022-10-16T08:54:28.778Z,98901.03
2022-10-16T08:56:58.239Z,98898.91
2022-10-16T08:59:25.409Z,98899.97
2022-10-16T09:01:53.280Z,98899.97
2022-10-16T09:04:50.020Z,98902.69
2022-10-16T09:48:18.392Z,98921.47
2022-10-16T10:34:26.164Z,98933.03
2022-10-16T11:06:32.282Z,98917.00
2022-10-16T11:09:22.276Z,98909.38
2022-10-16T11:11:57.868Z,98928.28
2022-10-16T11:14:32.855Z,98926.41
2022-10-16T11:17:03.835Z,98922.34
2022-10-16T11:19:55.594Z,98922.34
2022-10-16T11:22:37.593Z,98914.75
2022-10-16T11:25:18.431Z,98919.97
2022-10-16T11:27:57.200Z,98920.56
2022-10-16T11:30:26.999Z,98917.00
2022-10-16T11:33:11.744Z,98922.25
2022-10-16T11:35:38.683Z,98922.25
2022-10-16T11:38:08.593Z,98923.88
2022-10-16T11:40:35.756Z,98928.06
2022-10-16T11:43:14.510Z,98923.44
2022-10-16T11:45:42.159Z,98929.97
2022-10-16T11:48:45.888Z,98925.09
2022-10-16T11:51:19.038Z,98928.41
2022-10-16T11:53:54.808Z,98924.63
2022-10-16T11:56:22.114Z,98931.75
2022-10-16T11:59:21.451Z,98935.06
2022-10-16T12:01:59.492Z,98918.66
2022-10-16T12:04:46.656Z,98923.66
2022-10-16T12:07:15.564Z,98934.13
2022-10-16T12:09:42.906Z,98930.91
2022-10-16T12:12:32.891Z,98939.72
2022-10-16T12:15:25.851Z,98927.69
2022-10-16T12:18:02.267Z,98935.47
2022-10-16T12:20:34.211Z,98931.69
2022-10-16T12:23:07.201Z,98934.75
2022-10-16T12:25:36.586Z,98935.59
2022-10-16T12:28:04.910Z,98933.44
2022-10-16T12:30:37.104Z,98937.84
2022-10-16T12:33:09.272Z,98941.19
2022-10-16T12:35:40.091Z,98946.41
2022-10-16T12:38:27.789Z,98943.44
2022-10-16T12:41:01.137Z,98940.34
2022-10-16T12:43:43.649Z,98948.06
2022-10-16T12:46:10.545Z,98949.25
2022-10-16T12:48:48.523Z,98943.88
2022-10-16T12:51:27.025Z,98952.47
2022-10-16T12:54:25.355Z,98947.06
2022-10-16T12:57:20.059Z,98950.75
2022-10-16T12:59:52.843Z,98955.50
2022-10-16T13:02:47.113Z,98961.34
2022-10-16T13:05:39.595Z,98958.97
2022-10-16T13:08:37.212Z,98957.63
2022-10-16T13:11:04.288Z,98957.16
2022-10-16T13:13:52.013Z,98954.41
2022-10-16T13:17:08.282Z,98968.22
2022-10-16T13:19:41.116Z,98961.66
2022-10-16T13:22:36.040Z,98955.97
2022-10-16T13:25:26.800Z,98955.69
2022-10-16T13:28:01.986Z,98958.69
2022-10-16T13:30:39.642Z,98965.56
2022-10-16T13:33:16.499Z,98966.19
2022-10-16T13:35:52.464Z,98960.72
2022-10-16T13:38:21.621Z,98965.91
2022-10-16T13:40:53.357Z,98961.03
2022-10-16T13:43:24.775Z,98965.69
2022-10-16T13:45:59.815Z,98969.03
2022-10-16T13:48:27.274Z,98970.66
2022-10-16T13:51:27.761Z,98972.34
2022-10-16T13:53:56.426Z,98964.34
2022-10-16T13:56:24.567Z,98971.28
2022-10-16T13:59:27.957Z,98963.06
2022-10-16T14:01:56.448Z,98959.25
2022-10-16T14:04:23.509Z,98940.31
2022-10-16T14:06:52.058Z,98957.91
2022-10-16T14:09:24.546Z,98948.88
2022-10-16T14:11:53.501Z,98953.28
2022-10-16T14:14:20.780Z,98945.91
2022-10-16T14:16:48.271Z,98949.47
2022-10-16T14:19:35.190Z,98953.88
2022-10-16T14:22:02.239Z,98959.34
2022-10-16T14:24:32.346Z,98960.16
2022-10-16T14:26:59.453Z,98963.75
2022-10-16T14:29:27.722Z,98970.88
2022-10-16T14:32:02.366Z,98976.38
2022-10-16T14:34:34.714Z,98987.31
2022-10-16T14:37:29.825Z,99001.88
2022-10-16T14:39:57.293Z,98999.97
2022-10-16T14:42:26.073Z,98999.97
2022-10-16T14:44:56.703Z,98998.91
2022-10-16T14:47:27.923Z,99002.72
2022-10-16T14:50:00.263Z,99006.28
2022-10-16T14:52:27.322Z,99004.63
2022-10-16T14:54:57.832Z,99004.63
2022-10-16T14:57:26.236Z,99002.72
2022-10-16T14:59:53.622Z,98995.34
2022-10-16T15:02:33.021Z,98992.78
2022-10-16T15:05:03.237Z,98993.66
2022-10-16T15:07:30.556Z,99002.72
2022-10-16T15:09:58.954Z,99002.91
2022-10-16T15:12:25.891Z,99011.97
2022-10-16T15:14:52.868Z,99007.34
2022-10-16T15:17:22.073Z,99004.81
2022-10-16T15:19:49.322Z,99006.72
2022-10-16T15:22:16.321Z,99003.19
2022-10-16T15:24:43.306Z,99009.47
2022-10-16T15:27:10.284Z,99005.91
2022-10-16T15:29:37.204Z,99014.13
2022-10-16T15:32:04.454Z,99014.13
2022-10-16T15:34:31.436Z,99015.19
2022-10-16T15:36:59.116Z,99012.47
2022-10-16T15:39:26.424Z,99010.19
2022-10-16T15:41:54.488Z,99011.84
2022-10-16T15:44:21.714Z,99007.22
2022-10-16T15:46:48.706Z,99017.34
2022-10-16T15:49:15.702Z,99013.75
2022-10-16T15:51:43.079Z,99014.84
2022-10-16T15:54:10.139Z,99027.72
2022-10-16T15:56:38.377Z,99021.41
2022-10-16T15:59:05.735Z,99031.50
2022-10-16T16:01:36.228Z,99028.78
2022-10-16T16:04:10.925Z,99043.53
2022-10-16T16:06:47.569Z,99033.66
2022-10-16T16:09:14.886Z,99041.88
2022-10-16T16:11:42.068Z,99048.19
2022-10-16T16:14:11.382Z,99047.34
2022-10-16T16:16:39.341Z,99044.03
2022-10-16T16:19:10.578Z,99046.16
2022-10-16T16:21:38.754Z,99057.94
2022-10-16T16:24:09.538Z,99053.53
2022-10-16T16:26:40.649Z,99052.69
2022-10-16T16:29:07.969Z,99069.13
2022-10-16T16:31:35.937Z,99060.91
2022-10-16T16:34:03.214Z,99061.75
2022-10-16T16:36:30.510Z,99060.91
2022-10-16T16:38:58.389Z,99069.41
2022-10-16T16:41:27.301Z,99078.44
2022-10-16T16:43:54.962Z,99085.81
2022-10-16T16:46:22.898Z,99084.97
2022-10-16T16:48:51.558Z,99079.50
2022-10-16T16:51:20.808Z,99083.31
2022-10-16T16:53:50.004Z,99092.59
2022-10-16T16:56:17.126Z,99100.81
2022-10-16T16:58:46.780Z,99113.69
2022-10-16T17:01:21.744Z,99115.59
2022-10-16T17:03:53.196Z,99112.00
2022-10-16T17:06:21.492Z,99115.81
2022-10-16T17:08:48.934Z,99123.19
2022-10-16T17:11:26.388Z,99124.25
2022-10-16T17:13:56.810Z,99125.09
2022-10-16T17:16:34.788Z,99124.25
2022-10-16T17:19:06.229Z,99137.94
2022-10-16T17:21:33.230Z,99135.19
2022-10-16T17:24:01.179Z,99137.09
2022-10-16T17:26:28.570Z,99142.84
2022-10-16T17:28:56.829Z,99148.31
2022-10-16T17:31:26.074Z,99151.06
2022-10-16T17:33:53.098Z,99156.53
2022-10-16T17:36:20.403Z,99157.59
2022-10-16T17:38:47.465Z,99156.75
2022-10-16T17:41:21.864Z,99162.22
2022-10-16T17:43:49.075Z,99163.06
2022-10-16T17:46:16.838Z,99171.50
2022-10-16T17:48:45.765Z,99167.94
2022-10-16T17:51:14.376Z,99172.34
2022-10-16T17:53:41.801Z,99177.81
2022-10-16T17:56:10.721Z,99173.41
2022-10-16T17:58:37.779Z,99186.28
2022-10-16T18:01:15.018Z,99191.75
2022-10-16T18:03:42.694Z,99185.44
2022-10-16T18:06:09.700Z,99196.41
2022-10-16T18:08:39.356Z,99193.88
2022-10-16T18:11:06.401Z,99199.38
2022-10-16T18:13:33.380Z,99194.72
2022-10-16T18:16:02.165Z,99211.16
2022-10-16T18:18:29.830Z,99201.25
2022-10-16T18:21:00.681Z,99205.91
2022-10-16T18:23:28.064Z,99201.25
2022-10-16T18:25:55.274Z,99200.44
2022-10-16T18:28:22.356Z,99197.94
2022-10-16T18:31:02.459Z,99197.94
2022-10-16T18:33:31.086Z,99207.81
2022-10-16T18:36:04.939Z,99195.22
2022-10-16T18:38:32.084Z,99196.28
2022-10-16T18:41:01.945Z,99212.69
2022-10-16T18:43:30.536Z,99221.97
2022-10-16T18:45:58.916Z,99221.97
2022-10-16T18:48:26.204Z,99228.28
2022-10-16T18:50:53.244Z,99220.28
2022-10-16T18:53:20.367Z,99228.50
2022-10-16T18:55:53.950Z,99231.25
2022-10-16T18:58:20.980Z,99229.34
2022-10-16T19:00:47.985Z,99235.66
2022-10-16T19:03:15.012Z,99243.88
2022-10-16T19:05:42.388Z,99229.34
2022-10-16T19:08:09.387Z,99246.59
2022-10-16T19:10:39.915Z,99257.56
2022-10-16T19:13:10.319Z,99251.25
2022-10-16T19:15:46.830Z,99255.03
2022-10-16T19:18:24.644Z,99264.34
2022-10-16T19:20:54.184Z,99255.50
2022-10-16T19:23:21.394Z,99261.81
2022-10-16T19:25:48.377Z,99260.16
2022-10-16T19:28:15.313Z,99264.78
2022-10-16T19:30:43.049Z,99268.38
2022-10-16T19:33:09.988Z,99269.41
2022-10-16T19:35:37.020Z,99272.16
2022-10-16T19:38:04.013Z,99273.25
2022-10-16T19:40:30.976Z,99292.63
2022-10-16T19:42:57.942Z,99295.38
2022-10-16T19:45:24.999Z,99297.28
2022-10-16T19:47:51.988Z,99290.97
2022-10-16T19:50:19.765Z,99290.13
2022-10-16T19:52:46.831Z,99289.28
2022-10-16T19:55:13.868Z,99295.59
2022-10-16T19:57:40.860Z,99288.44
2022-10-16T20:00:08.873Z,99288.44
2022-10-16T20:02:36.182Z,99288.44
2022-10-16T20:05:03.176Z,99285.69
2022-10-16T20:07:32.574Z,99293.91
2022-10-16T20:10:02.240Z,99295.59
2022-10-16T20:12:29.282Z,99289.53
2022-10-16T20:14:56.341Z,99289.53
2022-10-16T20:17:23.295Z,99298.59
2022-10-16T20:19:50.258Z,99304.06
2022-10-16T20:22:17.229Z,99304.06
2022-10-16T20:24:44.215Z,99310.34
2022-10-16T20:27:11.199Z,99311.19
2022-10-16T20:29:38.269Z,99323.22
2022-10-16T20:32:05.404Z,99320.69
2022-10-16T20:34:32.483Z,99323.22
2022-10-16T20:36:59.660Z,99324.50
2022-10-16T20:39:26.643Z,99319.03
2022-10-16T20:41:53.607Z,99327.22
2022-10-16T20:44:21.152Z,99331.03
2022-10-16T20:46:49.409Z,99330.81
2022-10-16T20:49:35.789Z,99332.69
2022-10-16T20:52:04.033Z,99330.19
2022-10-16T20:54:31.024Z,99329.97
2022-10-16T20:56:58.482Z,99331.03
2022-10-16T20:59:25.591Z,99336.50
2022-10-16T21:01:52.811Z,99340.91
2022-10-16T21:04:21.349Z,99340.91
2022-10-16T21:06:48.529Z,99343.66
2022-10-16T21:09:15.567Z,99344.72
2022-10-16T21:11:44.864Z,99342.81
2022-10-16T21:14:11.813Z,99346.59
2022-10-16T21:16:38.821Z,99352.06
2022-10-16T21:19:06.108Z,99350.44
2022-10-16T21:21:34.948Z,99358.66
2022-10-16T21:24:02.008Z,99355.91
2022-10-16T21:26:29.673Z,99363.28
2022-10-16T21:29:03.874Z,99370.66
2022-10-16T21:31:31.050Z,99372.53
2022-10-16T21:33:58.135Z,99375.28
2022-10-16T21:36:28.976Z,99384.56
2022-10-16T21:38:56.004Z,99376.97
2022-10-16T21:41:27.485Z,99387.91
2022-10-16T21:43:55.147Z,99380.75
2022-10-16T21:46:23.490Z,99386.22
2022-10-16T21:48:53.692Z,99389.59
2022-10-16T21:51:20.740Z,99395.28
2022-10-16T21:53:47.674Z,99395.50
2022-10-16T21:56:15.747Z,99400.97
2022-10-16T21:58:44.920Z,99406.44
2022-10-16T22:01:16.616Z,99409.19
2022-10-16T22:03:44.662Z,99405.59
2022-10-16T22:06:12.147Z,99414.06
2022-10-16T22:08:39.344Z,99396.81
2022-10-16T22:11:22.233Z,99394.28
2022-10-16T22:13:54.000Z,99404.19
2022-10-16T22:16:27.305Z,99403.97
2022-10-16T22:18:55.356Z,99399.53
2022-10-16T22:21:22.355Z,99405.84
2022-10-16T22:23:49.330Z,99399.28
2022-10-16T22:26:16.273Z,99400.38
2022-10-16T22:28:43.477Z,99402.28
2022-10-16T22:31:11.905Z,99400.38
2022-10-16T22:33:38.944Z,99404.19
2022-10-16T22:36:06.875Z,99399.75
2022-10-16T22:38:34.260Z,99399.75
2022-10-16T22:41:11.977Z,99408.81
2022-10-16T22:43:40.109Z,99420.81
2022-10-16T22:46:08.371Z,99412.84
2022-10-16T22:48:35.732Z,99412.84
2022-10-16T22:51:03.087Z,99421.28
2022-10-16T22:53:30.045Z,99416.66
2022-10-16T22:55:57.101Z,99419.59
2022-10-16T22:58:24.117Z,99428.06
2022-10-16T23:00:51.157Z,99421.50
2022-10-16T23:03:18.278Z,99423.19
2022-10-16T23:05:45.354Z,99425.91
2022-10-16T23:08:12.734Z,99427.59
2022-10-16T23:10:40.819Z,99425.91
2022-10-16T23:13:07.886Z,99432.22
2022-10-16T23:15:34.892Z,99426.97
2022-10-16T23:18:01.871Z,99429.69
2022-10-16T23:20:28.898Z,99429.94
2022-10-16T23:22:55.871Z,99430.78
2022-10-16T23:25:22.856Z,99424.69
2022-10-16T23:27:49.809Z,99423.03
2022-10-16T23:30:16.880Z,99421.34
2022-10-16T23:32:43.869Z,99431.47
2022-10-16T23:35:10.836Z,99427.91
2022-10-16T23:37:37.797Z,99435.47
2022-10-16T23:40:05.358Z,99433.59
2022-10-16T23:42:32.318Z,99439.91
2022-10-16T23:44:59.315Z,99440.75
2022-10-16T23:47:26.406Z,99437.16
2022-10-16T23:49:53.528Z,99440.50
2022-10-16T23:52:20.455Z,99440.50
2022-10-16T23:54:47.476Z,99436.94
2022-10-16T23:57:14.394Z,99437.75
2022-10-16T23:59:41.373Z,99440.94
